LXV weather

Lake County Airport
Leadville, Colorado, United States

Public forecast

Using degrees Fahrenheit for public forecast. Weather courtesy of forecast.io.

METAR (pilot weather report)

Retrieved 2019/09/17 04:53 UTC (24 minutes ago):

KLXV 170453Z AUTO 07003KT 10SM FEW100 07/01 A3032 RMK AO2 SLP119 T00720006

TAF (pilot weather forecast)

Forecast is more than 12 hours old.

Closest forecast is Aspen-Pitkin Co/Sardy Field, 25.7 nm (47.6 km) W. Retrieved 2019/09/16 00:42 UTC (1 day ago):

TAF KASE 162339Z 1700/1724 32010G15KT P6SM FEW070 BKN200 FM170200 19005KT P6SM SCT070 BKN200 FM171500 16008G16KT P6SM SCT070 BKN120 FM171800 22012G25KT P6SM SCT080 BKN120